createdAt,value
2024-02-02T00:00:41.890Z,1.43
2024-02-02T00:03:08.756Z,1.57
2024-02-02T00:05:35.534Z,1.65
2024-02-02T00:08:02.706Z,1.80
2024-02-02T00:10:29.512Z,1.88
2024-02-02T00:12:56.911Z,1.76
2024-02-02T00:15:23.841Z,1.91
2024-02-02T00:17:50.737Z,1.93
2024-02-02T00:20:17.425Z,1.87
2024-02-02T00:22:43.972Z,1.91
2024-02-02T00:25:10.542Z,2.08
2024-02-02T00:27:37.143Z,2.22
2024-02-02T00:30:04.223Z,2.31
2024-02-02T00:32:30.744Z,2.38
2024-02-02T00:34:57.341Z,2.53
2024-02-02T00:37:23.901Z,2.68
2024-02-02T00:39:50.412Z,2.55
2024-02-02T00:42:16.980Z,2.45
2024-02-02T00:44:43.528Z,2.62
2024-02-02T00:47:10.032Z,2.65
2024-02-02T00:49:36.603Z,2.47
2024-02-02T00:52:03.243Z,2.41
2024-02-02T00:54:30.221Z,2.41
2024-02-02T00:56:56.947Z,2.47
2024-02-02T00:59:23.626Z,2.55
2024-02-02T01:01:50.973Z,2.71
2024-02-02T01:04:17.446Z,2.74
2024-02-02T01:06:44.827Z,2.72
2024-02-02T01:09:12.222Z,2.84
2024-02-02T01:11:38.928Z,2.96
2024-02-02T01:14:05.500Z,3.03
2024-02-02T01:16:34.105Z,3.11
2024-02-02T01:19:01.232Z,3.40
2024-02-02T01:21:29.040Z,3.34
2024-02-02T01:23:55.825Z,3.32
2024-02-02T01:26:22.380Z,3.37
2024-02-02T01:28:48.903Z,3.31
2024-02-02T01:31:15.360Z,3.37
2024-02-02T01:33:41.996Z,3.23
2024-02-02T01:36:08.888Z,3.32
2024-02-02T01:38:35.511Z,3.47
2024-02-02T01:41:01.975Z,3.57
2024-02-02T01:43:28.750Z,3.59
2024-02-02T01:45:55.592Z,3.51
2024-02-02T01:48:22.676Z,3.41
2024-02-02T01:50:49.307Z,3.40
2024-02-02T01:53:16.097Z,3.58
2024-02-02T01:55:42.937Z,3.64
2024-02-02T01:58:09.554Z,3.60
2024-02-02T02:00:37.471Z,3.62
2024-02-02T02:03:04.294Z,3.57
2024-02-02T02:05:31.215Z,3.56
2024-02-02T02:07:57.869Z,3.42
2024-02-02T02:10:25.887Z,3.41
2024-02-02T02:12:52.527Z,3.63
2024-02-02T02:15:19.346Z,3.64
2024-02-02T02:17:45.992Z,3.85
2024-02-02T02:20:13.362Z,3.84
2024-02-02T02:22:39.909Z,3.91
2024-02-02T02:25:06.851Z,4.04
2024-02-02T02:27:33.690Z,4.12
2024-02-02T02:30:01.856Z,4.21
2024-02-02T02:32:29.002Z,4.29
2024-02-02T02:34:55.609Z,3.89
2024-02-02T02:37:22.191Z,3.84
2024-02-02T02:39:48.783Z,4.14
2024-02-02T02:42:15.468Z,4.21
2024-02-02T02:44:42.348Z,4.34
2024-02-02T02:47:09.021Z,4.38
2024-02-02T02:49:35.636Z,4.51
2024-02-02T02:52:02.319Z,4.56
2024-02-02T02:54:29.548Z,4.44
2024-02-02T02:56:56.232Z,4.69
2024-02-02T02:59:22.827Z,4.74
2024-02-02T03:01:49.368Z,4.79
2024-02-02T03:04:15.972Z,4.83
2024-02-02T03:06:42.563Z,4.83
2024-02-02T03:09:12.686Z,4.57
2024-02-02T03:11:39.481Z,4.71
2024-02-02T03:14:06.663Z,4.52
2024-02-02T03:16:33.208Z,4.46
2024-02-02T03:19:00.193Z,4.53
2024-02-02T03:21:26.977Z,4.49
2024-02-02T03:23:53.545Z,4.43
2024-02-02T03:26:20.047Z,4.30
2024-02-02T03:28:46.522Z,4.46
2024-02-02T03:31:13.058Z,4.37
2024-02-02T03:33:39.596Z,4.44
2024-02-02T03:36:06.416Z,4.46
2024-02-02T03:38:32.963Z,4.44
2024-02-02T03:40:59.455Z,4.50
2024-02-02T03:43:26.029Z,4.59
2024-02-02T03:45:52.545Z,4.62
2024-02-02T03:48:19.308Z,4.58
2024-02-02T03:50:45.903Z,4.65
2024-02-02T03:53:12.458Z,4.65
2024-02-02T03:55:38.942Z,4.71
2024-02-02T03:58:05.500Z,4.66
2024-02-02T04:00:32.132Z,4.53
2024-02-02T04:02:58.900Z,4.46
2024-02-02T04:05:25.632Z,4.61
2024-02-02T04:07:52.159Z,4.46
2024-02-02T04:10:18.783Z,4.22
2024-02-02T04:12:45.221Z,4.26
2024-02-02T04:15:11.729Z,4.18
2024-02-02T04:17:38.254Z,4.00
2024-02-02T04:20:05.614Z,4.12
2024-02-02T04:22:32.123Z,3.87
2024-02-02T04:24:58.572Z,4.09
2024-02-02T04:27:25.119Z,4.31
2024-02-02T04:29:51.997Z,4.35
2024-02-02T04:32:18.636Z,4.29
2024-02-02T04:34:45.248Z,4.38
2024-02-02T04:37:11.832Z,4.10
2024-02-02T04:39:38.312Z,3.92
2024-02-02T04:42:06.110Z,3.93
2024-02-02T04:44:32.636Z,4.21
2024-02-02T04:46:59.623Z,4.22
2024-02-02T04:49:26.210Z,4.42
2024-02-02T04:51:52.749Z,4.41
2024-02-02T04:54:19.305Z,4.57
2024-02-02T04:56:45.814Z,4.59
2024-02-02T04:59:12.395Z,4.54
2024-02-02T05:01:38.891Z,4.70
2024-02-02T05:04:06.194Z,4.66
2024-02-02T05:06:32.755Z,4.63
2024-02-02T05:09:00.416Z,4.61
2024-02-02T05:11:26.995Z,4.62
2024-02-02T05:13:53.473Z,4.72
2024-02-02T05:16:19.996Z,4.58
2024-02-02T05:18:46.595Z,4.77
2024-02-02T05:21:13.557Z,4.80
2024-02-02T05:23:47.030Z,4.76
2024-02-02T05:26:16.167Z,4.84
2024-02-02T05:28:42.736Z,4.95
2024-02-02T05:31:09.255Z,4.92
2024-02-02T05:33:36.040Z,5.15
2024-02-02T05:36:02.760Z,5.04
2024-02-02T05:38:29.397Z,4.96
2024-02-02T05:40:55.985Z,5.13
2024-02-02T05:43:22.479Z,5.22
2024-02-02T05:45:48.986Z,4.81
2024-02-02T05:48:15.586Z,4.74
2024-02-02T05:50:42.349Z,4.69
2024-02-02T05:53:08.937Z,4.34
2024-02-02T05:55:35.465Z,4.36
2024-02-02T05:58:02.054Z,4.39
2024-02-02T06:00:29.279Z,4.46
2024-02-02T06:02:55.889Z,4.28
2024-02-02T06:05:22.428Z,4.58
2024-02-02T06:07:49.029Z,4.58
2024-02-02T06:10:15.810Z,4.75
2024-02-02T06:12:42.433Z,4.91
2024-02-02T06:15:09.464Z,5.00
2024-02-02T06:17:36.688Z,5.13
2024-02-02T06:20:04.095Z,5.14
2024-02-02T06:22:30.835Z,5.18
2024-02-02T06:24:57.405Z,5.21
2024-02-02T06:27:24.911Z,5.09
2024-02-02T06:29:51.645Z,5.16
2024-02-02T06:32:21.866Z,5.36
2024-02-02T06:34:51.879Z,5.26
2024-02-02T06:37:19.698Z,5.45
2024-02-02T06:39:48.791Z,5.41
2024-02-02T06:42:15.529Z,5.40
2024-02-02T06:44:42.526Z,5.32
2024-02-02T06:47:09.025Z,5.36
2024-02-02T06:49:35.796Z,5.39
2024-02-02T06:52:03.112Z,5.21
2024-02-02T06:54:30.253Z,5.21
2024-02-02T06:56:56.924Z,5.27
2024-02-02T06:59:23.543Z,5.30
2024-02-02T07:01:50.808Z,5.50
2024-02-02T07:04:17.711Z,5.29
2024-02-02T07:06:45.094Z,5.40
2024-02-02T07:09:20.994Z,5.59
2024-02-02T07:12:00.677Z,5.32
2024-02-02T07:14:49.215Z,5.32
2024-02-02T07:17:43.732Z,5.45
2024-02-02T07:20:33.758Z,5.35
2024-02-02T07:23:12.693Z,5.46
2024-02-02T07:25:41.635Z,5.43
2024-02-02T07:28:23.074Z,5.32
2024-02-02T07:30:54.147Z,5.69
2024-02-02T07:33:45.225Z,5.46
2024-02-02T07:36:18.452Z,5.42
2024-02-02T07:38:45.267Z,5.51
2024-02-02T07:41:13.451Z,5.54
2024-02-02T07:43:40.496Z,5.46
2024-02-02T07:46:11.135Z,5.60
2024-02-02T07:48:40.118Z,5.87
2024-02-02T07:51:08.349Z,5.72
2024-02-02T07:53:35.117Z,5.66
2024-02-02T07:56:02.502Z,5.60
2024-02-02T07:58:29.195Z,5.86
2024-02-02T08:00:55.984Z,5.84
2024-02-02T08:03:22.589Z,5.77
2024-02-02T08:05:49.317Z,5.60
2024-02-02T08:08:15.917Z,5.60
2024-02-02T08:10:47.123Z,5.83
2024-02-02T08:13:15.241Z,5.99
2024-02-02T08:15:41.983Z,6.06
2024-02-02T08:18:09.586Z,5.82
2024-02-02T08:20:36.608Z,5.72
2024-02-02T08:23:03.407Z,5.93
2024-02-02T08:25:30.547Z,6.01
2024-02-02T08:27:57.789Z,6.03
2024-02-02T08:30:27.502Z,5.94
2024-02-02T08:32:54.317Z,6.30
2024-02-02T08:35:26.098Z,6.29
2024-02-02T08:37:56.885Z,6.33
2024-02-02T08:40:29.396Z,6.31
2024-02-02T08:42:56.119Z,6.30
2024-02-02T08:45:37.814Z,6.51
2024-02-02T08:48:08.642Z,6.49
2024-02-02T08:50:35.339Z,6.56
2024-02-02T08:53:02.277Z,7.39
2024-02-02T08:55:48.286Z,7.43
2024-02-02T08:58:24.924Z,8.54
2024-02-02T09:00:52.575Z,10.03
2024-02-02T09:03:41.894Z,10.62
2024-02-02T09:06:13.711Z,10.51
2024-02-02T09:08:42.729Z,10.50
2024-02-02T09:11:22.298Z,11.63
2024-02-02T09:13:52.280Z,11.06
2024-02-02T09:16:20.473Z,11.77
2024-02-02T09:18:55.492Z,12.38
2024-02-02T09:21:29.038Z,11.39
2024-02-02T09:23:56.236Z,11.09
2024-02-02T09:26:49.231Z,11.99
2024-02-02T09:29:15.788Z,12.50
2024-02-02T09:31:42.626Z,12.27
2024-02-02T09:34:11.747Z,12.38
2024-02-02T09:36:40.866Z,11.74
2024-02-02T09:39:29.629Z,12.44
2024-02-02T09:42:45.154Z,13.09
2024-02-02T09:45:34.465Z,12.86
2024-02-02T09:48:23.216Z,13.46
2024-02-02T09:50:59.902Z,14.67
2024-02-02T09:53:40.367Z,14.74
2024-02-02T09:56:31.717Z,13.73
2024-02-02T09:59:08.266Z,14.37
2024-02-02T10:01:46.786Z,13.22
2024-02-02T10:04:24.307Z,12.98
2024-02-02T10:06:50.951Z,12.49
2024-02-02T10:09:38.454Z,12.33
2024-02-02T10:12:24.423Z,12.68
2024-02-02T10:14:56.983Z,13.93
2024-02-02T10:17:46.875Z,13.50
2024-02-02T10:20:16.232Z,11.54
2024-02-02T10:22:48.887Z,13.30
2024-02-02T10:25:57.143Z,13.86
2024-02-02T10:28:32.077Z,13.78
2024-02-02T10:31:15.748Z,13.65
2024-02-02T10:34:10.198Z,12.49
2024-02-02T10:36:48.806Z,12.38
2024-02-02T10:39:27.225Z,13.24
2024-02-02T10:42:20.418Z,13.39
2024-02-02T10:45:04.275Z,13.44
2024-02-02T10:47:44.822Z,13.46
2024-02-02T10:50:14.298Z,13.06
2024-02-02T10:52:58.839Z,13.39
2024-02-02T10:55:31.071Z,12.61
2024-02-02T10:58:09.997Z,12.55
2024-02-02T11:00:48.832Z,13.20
2024-02-02T11:03:36.010Z,13.53
2024-02-02T11:06:50.919Z,13.74
2024-02-02T11:09:49.587Z,13.10
2024-02-02T11:12:34.815Z,13.38
2024-02-02T11:15:12.999Z,12.97
2024-02-02T11:18:02.024Z,12.34
2024-02-02T11:21:11.477Z,13.54
2024-02-02T11:23:42.295Z,13.83
2024-02-02T11:26:45.367Z,13.15
2024-02-02T11:29:35.935Z,13.10
2024-02-02T11:32:22.957Z,12.52
2024-02-02T11:35:03.049Z,12.12
2024-02-02T11:37:36.429Z,11.81
2024-02-02T11:40:10.015Z,12.09
2024-02-02T11:42:38.288Z,12.82
2024-02-02T11:45:07.517Z,12.75
2024-02-02T11:47:43.460Z,11.63
2024-02-02T11:50:13.612Z,12.02
2024-02-02T11:52:43.876Z,12.14
2024-02-02T11:55:21.636Z,12.10
2024-02-02T11:57:54.635Z,12.17
2024-02-02T12:00:41.683Z,12.13
2024-02-02T12:03:33.601Z,11.82
2024-02-02T12:06:20.735Z,12.61
2024-02-02T12:09:13.338Z,12.29
2024-02-02T12:11:44.386Z,12.57
2024-02-02T12:14:22.474Z,12.73
2024-02-02T12:16:49.345Z,14.04
2024-02-02T12:19:16.216Z,14.11
2024-02-02T12:21:42.980Z,13.78
2024-02-02T12:24:09.631Z,13.93
2024-02-02T12:26:36.444Z,14.30
2024-02-02T12:29:03.014Z,13.25
2024-02-02T12:31:29.827Z,13.99
2024-02-02T12:33:56.680Z,13.60
2024-02-02T12:36:23.332Z,14.05
2024-02-02T12:38:52.018Z,14.06
2024-02-02T12:41:18.582Z,13.99
2024-02-02T12:43:48.137Z,13.22
2024-02-02T12:46:15.133Z,13.24
2024-02-02T12:48:42.089Z,12.53
2024-02-02T12:51:08.847Z,13.77
2024-02-02T12:53:36.617Z,12.63
2024-02-02T12:56:03.654Z,12.66
2024-02-02T12:58:30.407Z,13.02
2024-02-02T13:00:57.229Z,12.61
2024-02-02T13:03:24.980Z,13.35
2024-02-02T13:05:53.966Z,13.09
2024-02-02T13:08:31.321Z,13.00
2024-02-02T13:11:00.310Z,13.88
2024-02-02T13:13:27.683Z,14.08
2024-02-02T13:15:55.946Z,13.92
2024-02-02T13:18:26.349Z,13.68
2024-02-02T13:20:55.880Z,14.17
2024-02-02T13:23:26.720Z,13.68
2024-02-02T13:25:59.509Z,13.91
2024-02-02T13:28:27.118Z,13.80
2024-02-02T13:30:59.354Z,14.15
2024-02-02T13:33:33.913Z,14.22
2024-02-02T13:36:02.893Z,13.21
2024-02-02T13:38:32.555Z,13.19
2024-02-02T13:41:00.781Z,13.22
2024-02-02T13:43:29.034Z,13.33
2024-02-02T13:46:06.407Z,13.40
2024-02-02T13:48:38.167Z,14.31
2024-02-02T13:51:06.202Z,14.66
2024-02-02T13:53:32.992Z,15.40
2024-02-02T13:56:04.934Z,15.33
2024-02-02T13:58:38.403Z,15.07
2024-02-02T14:01:19.416Z,15.82
2024-02-02T14:03:47.352Z,15.50
2024-02-02T14:06:15.134Z,15.38
2024-02-02T14:08:46.167Z,15.53
2024-02-02T14:11:22.493Z,14.11
2024-02-02T14:13:49.559Z,14.32
2024-02-02T14:16:20.737Z,13.92
2024-02-02T14:18:58.408Z,13.95
2024-02-02T14:21:34.726Z,13.45
2024-02-02T14:24:10.914Z,13.61
2024-02-02T14:26:54.237Z,13.60
2024-02-02T14:29:25.553Z,13.28
2024-02-02T14:31:53.668Z,13.03
2024-02-02T14:34:20.844Z,12.93
2024-02-02T14:36:47.589Z,12.15
2024-02-02T14:39:34.735Z,12.48
2024-02-02T14:42:01.471Z,12.75
2024-02-02T14:44:32.244Z,12.67
2024-02-02T14:47:00.576Z,12.78
2024-02-02T14:49:27.628Z,12.74
2024-02-02T14:51:55.265Z,12.83
2024-02-02T14:54:22.540Z,12.55
2024-02-02T14:56:49.248Z,12.31
2024-02-02T14:59:22.019Z,12.08
2024-02-02T15:01:49.197Z,11.71
2024-02-02T15:04:16.738Z,11.94
2024-02-02T15:06:44.780Z,11.82
2024-02-02T15:09:15.203Z,11.67
2024-02-02T15:11:45.976Z,11.64
2024-02-02T15:14:13.514Z,11.40
2024-02-02T15:16:40.273Z,11.55
2024-02-02T15:19:06.891Z,11.52
2024-02-02T15:21:34.168Z,11.48
2024-02-02T15:24:01.419Z,11.32
2024-02-02T15:26:28.284Z,11.34
2024-02-02T15:28:55.062Z,11.19
2024-02-02T15:31:21.772Z,11.05
2024-02-02T15:33:48.604Z,10.66
2024-02-02T15:36:15.766Z,10.94
2024-02-02T15:38:59.656Z,10.74
2024-02-02T15:41:29.026Z,10.63
2024-02-02T15:43:56.634Z,10.46
2024-02-02T15:46:24.738Z,10.60
2024-02-02T15:48:52.042Z,10.47
2024-02-02T15:51:19.915Z,10.48
2024-02-02T15:53:47.189Z,10.29
2024-02-02T15:56:27.015Z,10.40
2024-02-02T15:58:53.773Z,10.28
2024-02-02T16:01:20.541Z,10.23
2024-02-02T16:03:47.302Z,10.11
2024-02-02T16:06:20.774Z,9.95
2024-02-02T16:08:47.496Z,10.10
2024-02-02T16:11:15.664Z,10.19
2024-02-02T16:13:45.451Z,10.06
2024-02-02T16:16:12.701Z,9.88
2024-02-02T16:18:39.383Z,9.65
2024-02-02T16:21:06.102Z,9.81
2024-02-02T16:23:32.656Z,9.71
2024-02-02T16:25:59.208Z,9.48
2024-02-02T16:28:25.805Z,9.37
2024-02-02T16:30:52.476Z,9.39
2024-02-02T16:33:21.341Z,9.34
2024-02-02T16:35:48.145Z,9.43
2024-02-02T16:38:16.017Z,9.23
2024-02-02T16:40:42.956Z,9.29
2024-02-02T16:43:09.717Z,9.07
2024-02-02T16:45:37.089Z,9.15
2024-02-02T16:48:04.231Z,9.12
2024-02-02T16:50:31.089Z,9.03
2024-02-02T16:52:57.587Z,8.91
2024-02-02T16:55:24.315Z,8.91
2024-02-02T16:57:52.319Z,8.69
2024-02-02T17:00:19.271Z,8.94
2024-02-02T17:02:45.987Z,8.94
2024-02-02T17:05:12.501Z,8.78
2024-02-02T17:07:39.064Z,8.87
2024-02-02T17:10:05.880Z,8.73
2024-02-02T17:12:32.556Z,8.61
2024-02-02T17:14:59.080Z,8.48
2024-02-02T17:17:25.674Z,8.52
2024-02-02T17:19:52.307Z,8.37
2024-02-02T17:22:18.918Z,8.39
2024-02-02T17:24:45.484Z,8.22
2024-02-02T17:27:12.091Z,8.36
2024-02-02T17:29:42.544Z,8.36
2024-02-02T17:32:09.167Z,8.42
2024-02-02T17:34:35.837Z,8.49
2024-02-02T17:37:02.490Z,8.39
2024-02-02T17:39:29.947Z,8.40
2024-02-02T17:41:56.556Z,8.44
2024-02-02T17:44:25.748Z,8.46
2024-02-02T17:46:54.436Z,8.45
2024-02-02T17:49:21.144Z,8.44
2024-02-02T17:51:47.896Z,8.31
2024-02-02T17:54:14.578Z,8.39
2024-02-02T17:56:41.154Z,8.33
2024-02-02T17:59:07.734Z,8.34
2024-02-02T18:01:37.117Z,8.41
2024-02-02T18:04:04.174Z,8.43
2024-02-02T18:06:30.956Z,8.26
2024-02-02T18:08:57.667Z,8.32
2024-02-02T18:11:24.368Z,8.09
2024-02-02T18:13:51.065Z,8.19
2024-02-02T18:16:17.790Z,8.17
2024-02-02T18:18:46.710Z,8.05
2024-02-02T18:21:13.574Z,8.15
2024-02-02T18:23:40.127Z,8.22
2024-02-02T18:26:07.119Z,8.16
2024-02-02T18:28:33.766Z,8.23
2024-02-02T18:31:00.292Z,8.21
2024-02-02T18:33:26.928Z,8.19
2024-02-02T18:35:53.573Z,8.11
2024-02-02T18:38:20.281Z,8.15
2024-02-02T18:40:50.567Z,8.11
2024-02-02T18:43:17.994Z,8.04
2024-02-02T18:45:45.158Z,8.14
2024-02-02T18:48:11.887Z,8.05
2024-02-02T18:50:38.601Z,8.12
2024-02-02T18:53:05.270Z,8.15
2024-02-02T18:55:31.879Z,8.05
2024-02-02T18:57:58.436Z,8.13
2024-02-02T19:00:25.212Z,8.06
2024-02-02T19:02:51.758Z,7.98
2024-02-02T19:05:18.454Z,7.95
2024-02-02T19:07:45.124Z,8.09
2024-02-02T19:10:11.714Z,7.99
2024-02-02T19:12:38.292Z,7.99
2024-02-02T19:15:07.540Z,7.92
2024-02-02T19:17:34.361Z,7.88
2024-02-02T19:20:00.978Z,7.93
2024-02-02T19:22:27.541Z,7.84
2024-02-02T19:24:54.279Z,7.79
2024-02-02T19:27:20.913Z,7.75
2024-02-02T19:29:47.544Z,7.77
2024-02-02T19:32:16.246Z,7.73
2024-02-02T19:34:43.003Z,7.81
2024-02-02T19:37:09.686Z,7.73
2024-02-02T19:39:36.417Z,7.75
2024-02-02T19:42:03.252Z,7.78
2024-02-02T19:44:29.789Z,7.79
2024-02-02T19:46:56.419Z,7.70
2024-02-02T19:49:23.131Z,7.75
2024-02-02T19:51:50.118Z,7.68
2024-02-02T19:54:16.882Z,7.73
2024-02-02T19:56:43.652Z,7.63
2024-02-02T19:59:10.165Z,7.47
2024-02-02T20:01:36.832Z,7.63
2024-02-02T20:04:03.501Z,7.66
2024-02-02T20:06:30.347Z,7.86
2024-02-02T20:08:57.013Z,7.78
2024-02-02T20:11:27.083Z,7.96
2024-02-02T20:13:53.746Z,7.92
2024-02-02T20:16:21.286Z,8.04
2024-02-02T20:18:49.537Z,7.93
2024-02-02T20:21:17.650Z,8.08
2024-02-02T20:23:46.130Z,7.90
2024-02-02T20:26:18.493Z,8.06
2024-02-02T20:28:53.110Z,7.97
2024-02-02T20:31:20.084Z,7.83
2024-02-02T20:33:48.149Z,8.07
2024-02-02T20:36:19.316Z,7.82
2024-02-02T20:38:45.880Z,7.98
2024-02-02T20:41:14.768Z,7.83
2024-02-02T20:43:41.448Z,7.99
2024-02-02T20:46:14.171Z,7.93
2024-02-02T20:48:40.966Z,7.98
2024-02-02T20:51:07.811Z,7.93
2024-02-02T20:53:34.311Z,7.91
2024-02-02T20:56:01.103Z,7.89
2024-02-02T20:58:27.640Z,7.95
2024-02-02T21:00:54.300Z,8.06
2024-02-02T21:03:24.366Z,8.01
2024-02-02T21:05:52.194Z,8.03
2024-02-02T21:08:18.867Z,8.11
2024-02-02T21:10:45.498Z,7.97
2024-02-02T21:13:12.548Z,8.05
2024-02-02T21:15:39.289Z,8.23
2024-02-02T21:18:15.625Z,7.96
2024-02-02T21:20:50.277Z,7.98
2024-02-02T21:23:18.934Z,8.06
2024-02-02T21:25:46.591Z,8.09
2024-02-02T21:28:14.115Z,8.08
2024-02-02T21:30:41.848Z,7.92
2024-02-02T21:33:08.532Z,7.88
2024-02-02T21:35:35.194Z,7.94
2024-02-02T21:38:01.776Z,7.71
2024-02-02T21:40:28.669Z,7.89
2024-02-02T21:42:55.720Z,8.01
2024-02-02T21:45:22.469Z,7.97
2024-02-02T21:47:49.297Z,8.01
2024-02-02T21:50:16.154Z,7.93
2024-02-02T21:52:43.999Z,8.11
2024-02-02T21:55:10.548Z,7.97
2024-02-02T21:57:37.210Z,7.92
2024-02-02T22:00:05.649Z,8.01
2024-02-02T22:02:32.326Z,8.22
2024-02-02T22:04:58.928Z,7.81
2024-02-02T22:07:25.820Z,7.87
2024-02-02T22:09:52.573Z,8.00
2024-02-02T22:12:19.155Z,8.05
2024-02-02T22:14:45.794Z,8.22
2024-02-02T22:17:12.420Z,8.20
2024-02-02T22:19:39.711Z,8.11
2024-02-02T22:22:07.157Z,8.18
2024-02-02T22:24:40.513Z,8.13
2024-02-02T22:27:07.975Z,7.95
2024-02-02T22:29:35.144Z,8.03
2024-02-02T22:32:01.878Z,7.95
2024-02-02T22:34:28.531Z,8.00
2024-02-02T22:36:55.666Z,7.97
2024-02-02T22:39:23.299Z,8.19
2024-02-02T22:41:49.930Z,8.18
2024-02-02T22:44:17.131Z,7.92
2024-02-02T22:46:43.876Z,7.69
2024-02-02T22:49:10.616Z,7.78
2024-02-02T22:51:44.485Z,8.05
2024-02-02T22:54:11.132Z,7.76
2024-02-02T22:56:37.690Z,7.85
2024-02-02T22:59:04.220Z,7.98
2024-02-02T23:01:30.845Z,8.03
2024-02-02T23:03:57.604Z,7.86
2024-02-02T23:06:24.389Z,7.89
2024-02-02T23:08:50.996Z,7.92
2024-02-02T23:11:17.938Z,7.93
2024-02-02T23:13:47.505Z,7.97
2024-02-02T23:16:14.252Z,7.96
2024-02-02T23:18:41.026Z,8.02
2024-02-02T23:21:08.743Z,7.95
2024-02-02T23:23:35.348Z,7.99
2024-02-02T23:26:02.480Z,7.97
2024-02-02T23:28:29.246Z,7.76
2024-02-02T23:30:56.246Z,7.69
2024-02-02T23:33:22.875Z,7.78
2024-02-02T23:35:49.429Z,7.65
2024-02-02T23:38:16.103Z,7.88
2024-02-02T23:40:42.585Z,7.98
2024-02-02T23:43:09.067Z,7.59
2024-02-02T23:45:35.605Z,7.73
2024-02-02T23:48:02.236Z,7.72
2024-02-02T23:50:28.770Z,7.73
2024-02-02T23:52:55.372Z,7.85
2024-02-02T23:55:21.950Z,7.84
2024-02-02T23:57:50.135Z,7.82
